createdAt,value
2023-06-07T00:01:51.497Z,54.08
2023-06-07T00:04:18.139Z,54.54
2023-06-07T00:06:45.205Z,54.49
2023-06-07T00:09:11.654Z,55.09
2023-06-07T00:11:38.124Z,54.83
2023-06-07T00:14:04.593Z,55.13
2023-06-07T00:16:31.048Z,55.23
2023-06-07T00:18:58.789Z,55.23
2023-06-07T00:21:25.398Z,55.25
2023-06-07T00:23:51.848Z,55.01
2023-06-07T00:26:18.301Z,54.90
2023-06-07T00:28:48.846Z,55.38
2023-06-07T00:31:15.580Z,55.38
2023-06-07T00:33:42.050Z,56.08
2023-06-07T00:36:08.548Z,55.76
2023-06-07T00:38:35.866Z,55.71
2023-06-07T00:41:02.452Z,55.99
2023-06-07T00:43:28.892Z,55.94
2023-06-07T00:45:55.352Z,55.76
2023-06-07T00:48:22.424Z,55.62
2023-06-07T00:50:48.974Z,55.44
2023-06-07T00:53:15.475Z,55.59
2023-06-07T00:55:41.875Z,55.58
2023-06-07T00:58:08.870Z,55.46
2023-06-07T01:00:38.464Z,55.30
2023-06-07T01:03:05.167Z,54.81
2023-06-07T01:05:31.822Z,55.04
2023-06-07T01:07:58.314Z,55.51
2023-06-07T01:10:24.869Z,55.62
2023-06-07T01:12:55.184Z,55.18
2023-06-07T01:15:21.749Z,56.13
2023-06-07T01:17:49.113Z,56.01
2023-06-07T01:20:15.626Z,55.95
2023-06-07T01:22:43.543Z,55.51
2023-06-07T01:25:10.654Z,55.04
2023-06-07T01:27:38.200Z,55.33
2023-06-07T01:30:04.889Z,55.19
2023-06-07T01:32:31.641Z,55.17
2023-06-07T01:34:58.114Z,55.25
2023-06-07T01:37:24.591Z,54.53
2023-06-07T01:39:52.863Z,54.15
2023-06-07T01:42:19.286Z,54.70
2023-06-07T01:44:45.763Z,54.32
2023-06-07T01:47:13.865Z,53.82
2023-06-07T01:49:41.047Z,54.37
2023-06-07T01:52:07.497Z,53.55
2023-06-07T01:54:33.951Z,53.03
2023-06-07T01:57:00.341Z,53.03
2023-06-07T01:59:28.757Z,53.78
2023-06-07T02:01:55.263Z,53.28
2023-06-07T02:04:21.824Z,53.28
2023-06-07T02:06:48.278Z,53.05
2023-06-07T02:09:15.304Z,53.42
2023-06-07T02:11:41.726Z,53.36
2023-06-07T02:14:08.162Z,53.73
2023-06-07T02:16:36.514Z,54.08
2023-06-07T02:19:07.848Z,53.90
2023-06-07T02:21:45.254Z,54.16
2023-06-07T02:24:12.210Z,53.61
2023-06-07T02:26:38.785Z,54.16
2023-06-07T02:29:05.861Z,53.90
2023-06-07T02:31:32.376Z,54.42
2023-06-07T02:33:58.835Z,54.44
2023-06-07T02:36:34.734Z,53.70
2023-06-07T02:39:03.631Z,53.92
2023-06-07T02:41:30.038Z,54.90
2023-06-07T02:43:56.457Z,54.72
2023-06-07T02:46:23.280Z,55.12
2023-06-07T02:48:49.877Z,55.27
2023-06-07T02:51:17.166Z,55.45
2023-06-07T02:53:45.512Z,55.00
2023-06-07T02:56:13.355Z,54.77
2023-06-07T02:58:39.787Z,54.84
2023-06-07T03:01:08.783Z,54.84
2023-06-07T03:03:40.451Z,54.40
2023-06-07T03:06:10.932Z,54.08
2023-06-07T03:08:39.097Z,54.52
2023-06-07T03:11:06.655Z,55.45
2023-06-07T03:13:37.326Z,54.96
2023-06-07T03:16:08.356Z,54.97
2023-06-07T03:18:44.030Z,54.64
2023-06-07T03:21:10.496Z,54.44
2023-06-07T03:23:37.640Z,54.44
2023-06-07T03:26:04.794Z,53.66
2023-06-07T03:28:33.746Z,53.62
2023-06-07T03:31:00.842Z,52.89
2023-06-07T03:33:37.670Z,52.92
2023-06-07T03:36:08.223Z,54.05
2023-06-07T03:38:37.092Z,53.46
2023-06-07T03:41:04.302Z,53.88
2023-06-07T03:43:36.186Z,53.98
2023-06-07T03:46:03.165Z,54.45
2023-06-07T03:48:30.946Z,54.03
2023-06-07T03:50:59.671Z,54.16
2023-06-07T03:53:26.291Z,54.43
2023-06-07T03:55:53.879Z,54.54
2023-06-07T03:58:24.312Z,54.21
2023-06-07T04:00:50.890Z,54.76
2023-06-07T04:03:17.665Z,54.35
2023-06-07T04:05:44.405Z,54.89
2023-06-07T04:08:12.547Z,55.49
2023-06-07T04:10:39.012Z,55.27
2023-06-07T04:13:05.544Z,55.65
2023-06-07T04:15:34.590Z,55.40
2023-06-07T04:18:01.045Z,55.52
2023-06-07T04:20:28.508Z,54.80
2023-06-07T04:22:55.529Z,54.17
2023-06-07T04:25:25.357Z,54.66
2023-06-07T04:27:52.359Z,54.95
2023-06-07T04:30:19.383Z,54.89
2023-06-07T04:32:48.060Z,55.05
2023-06-07T04:35:15.668Z,56.15
2023-06-07T04:37:46.828Z,55.94
2023-06-07T04:40:15.745Z,55.71
2023-06-07T04:42:47.722Z,55.72
2023-06-07T04:45:14.523Z,56.76
2023-06-07T04:47:46.208Z,57.94
2023-06-07T04:50:14.910Z,57.43
2023-06-07T04:52:42.543Z,57.60
2023-06-07T04:55:09.458Z,58.22
2023-06-07T04:57:36.782Z,58.13
2023-06-07T05:00:07.412Z,58.09
2023-06-07T05:02:45.447Z,56.99
2023-06-07T05:05:17.387Z,58.07
2023-06-07T05:07:45.597Z,57.85
2023-06-07T05:10:12.857Z,59.33
2023-06-07T05:12:39.483Z,59.35
2023-06-07T05:15:08.408Z,58.27
2023-06-07T05:17:37.497Z,56.87
2023-06-07T05:20:09.667Z,57.28
2023-06-07T05:22:36.103Z,58.20
2023-06-07T05:25:02.641Z,57.09
2023-06-07T05:27:29.631Z,56.64
2023-06-07T05:29:56.093Z,56.96
2023-06-07T05:32:22.896Z,57.17
2023-06-07T05:34:50.240Z,57.20
2023-06-07T05:37:16.774Z,57.33
2023-06-07T05:39:47.122Z,57.80
2023-06-07T05:42:13.757Z,57.22
2023-06-07T05:44:41.376Z,56.74
2023-06-07T05:47:08.100Z,57.09
2023-06-07T05:49:34.627Z,56.87
2023-06-07T05:52:01.128Z,56.58
2023-06-07T05:54:27.681Z,57.46
2023-06-07T05:56:54.475Z,57.37
2023-06-07T05:59:20.970Z,57.46
2023-06-07T06:01:47.604Z,57.13
2023-06-07T06:04:14.145Z,56.50
2023-06-07T06:06:41.009Z,56.92
2023-06-07T06:09:07.602Z,57.50
2023-06-07T06:11:34.120Z,57.51
2023-06-07T06:14:00.610Z,56.59
2023-06-07T06:16:27.015Z,57.52
2023-06-07T06:18:53.626Z,56.81
2023-06-07T06:21:20.108Z,56.57
2023-06-07T06:23:46.801Z,57.54
2023-06-07T06:26:13.593Z,56.97
2023-06-07T06:28:40.094Z,57.31
2023-06-07T06:31:06.800Z,56.12
2023-06-07T06:33:33.424Z,55.98
2023-06-07T06:36:00.926Z,56.55
2023-06-07T06:38:27.642Z,56.63
2023-06-07T06:40:54.065Z,56.70
2023-06-07T06:43:20.535Z,56.47
2023-06-07T06:45:51.265Z,56.36
2023-06-07T06:48:17.791Z,56.46
2023-06-07T06:50:47.836Z,56.57
2023-06-07T06:53:14.292Z,56.86
2023-06-07T06:55:41.129Z,57.75
2023-06-07T06:58:07.786Z,57.89
2023-06-07T07:00:36.868Z,57.15
2023-06-07T07:03:03.692Z,57.42
2023-06-07T07:05:30.845Z,56.77
2023-06-07T07:07:57.576Z,57.49
2023-06-07T07:10:24.025Z,56.67
2023-06-07T07:12:50.668Z,57.05
2023-06-07T07:15:17.191Z,56.87
2023-06-07T07:17:43.732Z,56.18
2023-06-07T07:20:11.772Z,56.86
2023-06-07T07:22:38.210Z,56.78
2023-06-07T07:25:04.716Z,56.59
2023-06-07T07:27:31.150Z,56.73
2023-06-07T07:29:57.709Z,56.17
2023-06-07T07:32:24.246Z,56.08
2023-06-07T07:34:50.777Z,56.49
2023-06-07T07:37:17.453Z,56.24
2023-06-07T07:39:43.905Z,56.52
2023-06-07T07:42:10.405Z,57.25
2023-06-07T07:44:38.161Z,56.56
2023-06-07T07:47:04.612Z,57.03
2023-06-07T07:49:31.159Z,56.24
2023-06-07T07:51:57.723Z,57.11
2023-06-07T07:54:24.277Z,57.62
2023-06-07T07:56:50.766Z,57.14
2023-06-07T07:59:17.366Z,59.82
2023-06-07T08:01:43.870Z,59.58
2023-06-07T08:04:10.533Z,58.30
2023-06-07T08:06:37.012Z,59.05
2023-06-07T08:09:03.545Z,58.53
2023-06-07T08:11:29.971Z,58.86
2023-06-07T08:13:56.836Z,59.44
2023-06-07T08:16:23.492Z,59.45
2023-06-07T08:18:50.716Z,60.13
2023-06-07T08:21:17.237Z,59.30
2023-06-07T08:23:46.229Z,61.36
2023-06-07T08:26:12.828Z,62.09
2023-06-07T08:28:39.317Z,61.99
2023-06-07T08:31:06.095Z,61.84
2023-06-07T08:33:32.546Z,61.81
2023-06-07T08:35:58.990Z,62.46
2023-06-07T08:38:26.905Z,63.19
2023-06-07T08:40:53.321Z,63.02
2023-06-07T08:43:19.727Z,63.97
2023-06-07T08:45:46.367Z,62.87
2023-06-07T08:48:12.977Z,63.30
2023-06-07T08:50:39.466Z,64.79
2023-06-07T08:53:06.248Z,66.33
2023-06-07T08:55:32.685Z,66.85
2023-06-07T08:57:59.095Z,67.85
2023-06-07T09:00:25.579Z,68.21
2023-06-07T09:02:53.819Z,68.14
2023-06-07T09:05:20.499Z,67.26
2023-06-07T09:07:47.035Z,66.90
2023-06-07T09:10:14.453Z,67.04
2023-06-07T09:12:41.622Z,66.38
2023-06-07T09:15:08.065Z,66.53
2023-06-07T09:17:34.586Z,67.18
2023-06-07T09:20:01.220Z,67.63
2023-06-07T09:22:27.684Z,67.17
2023-06-07T09:24:54.200Z,68.57
2023-06-07T09:27:20.838Z,68.31
2023-06-07T09:29:47.250Z,67.62
2023-06-07T09:32:13.828Z,69.04
2023-06-07T09:34:40.562Z,67.50
2023-06-07T09:37:07.195Z,69.92
2023-06-07T09:39:34.254Z,69.49
2023-06-07T09:42:00.728Z,69.69
2023-06-07T09:44:27.561Z,69.37
2023-06-07T09:46:54.081Z,70.62
2023-06-07T09:49:20.701Z,70.89
2023-06-07T09:51:47.189Z,68.87
2023-06-07T09:54:14.107Z,69.32
2023-06-07T09:56:40.904Z,69.32
2023-06-07T09:59:07.867Z,68.80
2023-06-07T10:01:34.725Z,69.71
2023-06-07T10:04:01.576Z,67.85
2023-06-07T10:06:28.256Z,67.66
2023-06-07T10:08:54.982Z,67.73
2023-06-07T10:11:21.539Z,71.33
2023-06-07T10:13:47.964Z,70.04
2023-06-07T10:16:14.440Z,70.17
2023-06-07T10:18:40.925Z,71.22
2023-06-07T10:21:07.342Z,68.86
2023-06-07T10:23:34.031Z,69.28
2023-06-07T10:26:00.617Z,69.48
2023-06-07T10:28:29.191Z,70.06
2023-06-07T10:30:55.715Z,69.83
2023-06-07T10:33:22.182Z,69.98
2023-06-07T10:35:48.678Z,70.39
2023-06-07T10:38:15.254Z,69.44
2023-06-07T10:40:42.152Z,70.43
2023-06-07T10:43:08.604Z,68.75
2023-06-07T10:45:35.038Z,68.83
2023-06-07T10:48:01.595Z,67.70
2023-06-07T10:50:28.271Z,68.81
2023-06-07T10:52:54.771Z,67.44
2023-06-07T10:55:21.257Z,68.73
2023-06-07T10:57:47.831Z,67.94
2023-06-07T11:00:16.162Z,67.89
2023-06-07T11:02:43.647Z,67.04
2023-06-07T11:05:11.374Z,66.34
2023-06-07T11:07:42.527Z,66.62
2023-06-07T11:10:09.315Z,65.82
2023-06-07T11:12:36.095Z,65.40
2023-06-07T11:15:02.621Z,65.95
2023-06-07T11:17:29.199Z,64.04
2023-06-07T11:19:56.438Z,64.55
2023-06-07T11:22:22.975Z,63.69
2023-06-07T11:24:49.409Z,64.27
2023-06-07T11:27:16.046Z,64.48
2023-06-07T11:29:44.350Z,65.53
2023-06-07T11:32:11.594Z,64.23
2023-06-07T11:34:38.354Z,63.34
2023-06-07T11:37:04.770Z,64.04
2023-06-07T11:39:31.206Z,64.41
2023-06-07T11:41:57.636Z,64.46
2023-06-07T11:44:24.077Z,64.67
2023-06-07T11:46:51.311Z,64.85
2023-06-07T11:49:17.786Z,63.79
2023-06-07T11:51:44.548Z,63.19
2023-06-07T11:54:11.123Z,63.45
2023-06-07T11:56:38.755Z,62.74
2023-06-07T11:59:05.753Z,64.27
2023-06-07T12:01:33.085Z,63.29
2023-06-07T12:03:59.632Z,62.91
2023-06-07T12:06:26.113Z,63.47
2023-06-07T12:08:52.645Z,62.80
2023-06-07T12:11:22.416Z,64.04
2023-06-07T12:13:49.999Z,62.74
2023-06-07T12:16:17.040Z,63.66
2023-06-07T12:18:43.662Z,63.92
2023-06-07T12:21:10.255Z,64.15
2023-06-07T12:23:37.291Z,63.11
2023-06-07T12:26:03.759Z,62.10
2023-06-07T12:28:30.257Z,62.12
2023-06-07T12:30:56.805Z,61.88
2023-06-07T12:33:23.398Z,61.26
2023-06-07T12:35:50.024Z,61.66
2023-06-07T12:38:16.682Z,61.40
2023-06-07T12:40:43.162Z,61.30
2023-06-07T12:43:09.736Z,60.66
2023-06-07T12:45:36.257Z,59.10
2023-06-07T12:48:02.790Z,58.85
2023-06-07T12:50:30.256Z,57.50
2023-06-07T12:52:56.694Z,57.72
2023-06-07T12:55:23.212Z,57.05
2023-06-07T12:57:49.633Z,57.74
2023-06-07T13:00:16.281Z,57.87
2023-06-07T13:02:45.673Z,57.57
2023-06-07T13:05:12.279Z,56.67
2023-06-07T13:07:39.394Z,56.54
2023-06-07T13:10:06.031Z,56.42
2023-06-07T13:12:32.639Z,55.38
2023-06-07T13:14:59.141Z,56.17
2023-06-07T13:17:26.000Z,55.37
2023-06-07T13:19:52.738Z,55.49
2023-06-07T13:22:19.246Z,55.11
2023-06-07T13:24:45.662Z,55.04
2023-06-07T13:27:12.328Z,55.84
2023-06-07T13:29:39.447Z,55.93
2023-06-07T13:32:05.885Z,55.73
2023-06-07T13:34:32.322Z,54.92
2023-06-07T13:36:58.852Z,55.42
2023-06-07T13:39:25.733Z,54.43
2023-06-07T13:41:52.274Z,53.95
2023-06-07T13:44:19.463Z,54.64
2023-06-07T13:46:46.245Z,54.63
2023-06-07T13:49:13.595Z,53.95
2023-06-07T13:51:40.162Z,55.82
2023-06-07T13:54:06.611Z,54.41
2023-06-07T13:56:33.164Z,54.50
2023-06-07T13:59:00.350Z,54.01
2023-06-07T14:01:28.374Z,54.69
2023-06-07T14:03:55.134Z,54.08
2023-06-07T14:06:23.657Z,54.32
2023-06-07T14:08:50.065Z,53.88
2023-06-07T14:11:16.625Z,53.16
2023-06-07T14:13:44.353Z,52.82
2023-06-07T14:16:11.823Z,53.01
2023-06-07T14:18:38.271Z,53.54
2023-06-07T14:21:04.740Z,53.45
2023-06-07T14:23:31.217Z,52.90
2023-06-07T14:25:57.949Z,52.92
2023-06-07T14:28:24.889Z,53.57
2023-06-07T14:30:51.800Z,53.27
2023-06-07T14:33:18.360Z,53.14
2023-06-07T14:35:44.948Z,51.98
2023-06-07T14:38:12.653Z,51.68
2023-06-07T14:40:39.066Z,51.63
2023-06-07T14:43:05.489Z,50.72
2023-06-07T14:45:32.014Z,51.81
2023-06-07T14:47:58.644Z,50.11
2023-06-07T14:50:25.214Z,51.02
2023-06-07T14:52:51.646Z,49.69
2023-06-07T14:55:18.070Z,49.60
2023-06-07T14:57:45.022Z,50.29
2023-06-07T15:00:11.548Z,50.37
2023-06-07T15:02:38.133Z,50.96
2023-06-07T15:05:04.716Z,50.66
2023-06-07T15:07:31.472Z,50.23
2023-06-07T15:09:57.945Z,49.63
2023-06-07T15:12:24.433Z,48.84
2023-06-07T15:14:50.938Z,50.75
2023-06-07T15:17:17.647Z,51.23
2023-06-07T15:19:44.148Z,49.69
2023-06-07T15:22:11.315Z,49.29
2023-06-07T15:24:38.132Z,48.94
2023-06-07T15:27:06.961Z,48.72
2023-06-07T15:29:33.564Z,48.41
2023-06-07T15:32:00.091Z,50.31
2023-06-07T15:34:30.156Z,49.63
2023-06-07T15:36:56.654Z,49.33
2023-06-07T15:39:23.117Z,49.48
2023-06-07T15:41:49.532Z,47.87
2023-06-07T15:44:16.101Z,48.40
2023-06-07T15:46:42.556Z,47.99
2023-06-07T15:49:09.011Z,48.90
2023-06-07T15:51:35.407Z,48.31
2023-06-07T15:54:01.853Z,47.31
2023-06-07T15:56:29.206Z,48.00
2023-06-07T15:58:55.754Z,47.75
2023-06-07T16:01:22.201Z,47.95
2023-06-07T16:03:56.523Z,47.16
2023-06-07T16:06:23.827Z,46.38
2023-06-07T16:08:50.295Z,46.10
2023-06-07T16:11:16.773Z,47.43
2023-06-07T16:13:43.269Z,47.57
2023-06-07T16:16:09.786Z,48.91
2023-06-07T16:18:37.864Z,49.02
2023-06-07T16:21:04.315Z,49.01
2023-06-07T16:23:31.209Z,48.64
2023-06-07T16:25:57.735Z,48.18
2023-06-07T16:28:24.504Z,46.64
2023-06-07T16:30:51.049Z,46.36
2023-06-07T16:33:17.578Z,47.67
2023-06-07T16:35:45.589Z,46.66
2023-06-07T16:38:12.218Z,46.51
2023-06-07T16:40:38.695Z,47.41
2023-06-07T16:43:05.158Z,46.84
2023-06-07T16:45:31.580Z,46.81
2023-06-07T16:47:59.194Z,47.43
2023-06-07T16:50:25.965Z,47.81
2023-06-07T16:52:52.424Z,49.03
2023-06-07T16:55:19.027Z,49.69
2023-06-07T16:57:45.490Z,50.66
2023-06-07T17:00:11.973Z,52.11
2023-06-07T17:02:38.442Z,53.20
2023-06-07T17:05:04.894Z,54.17
2023-06-07T17:07:31.338Z,56.24
2023-06-07T17:09:57.958Z,57.18
2023-06-07T17:12:24.488Z,57.21
2023-06-07T17:14:50.945Z,58.09
2023-06-07T17:17:17.461Z,58.78
2023-06-07T17:19:44.365Z,59.77
2023-06-07T17:22:10.826Z,60.28
2023-06-07T17:24:37.273Z,60.57
2023-06-07T17:27:06.543Z,60.98
2023-06-07T17:29:33.034Z,62.21
2023-06-07T17:31:59.620Z,61.66
2023-06-07T17:34:26.103Z,61.58
2023-06-07T17:36:53.316Z,61.62
2023-06-07T17:39:22.333Z,61.85
2023-06-07T17:41:48.779Z,62.23
2023-06-07T17:44:15.428Z,61.69
2023-06-07T17:46:42.056Z,61.97
2023-06-07T17:49:08.545Z,61.89
2023-06-07T17:51:35.198Z,62.28
2023-06-07T17:54:02.020Z,61.41
2023-06-07T17:56:29.098Z,61.14
2023-06-07T17:58:55.629Z,61.51
2023-06-07T18:01:23.411Z,61.38
2023-06-07T18:03:53.388Z,61.55
2023-06-07T18:06:19.882Z,60.53
2023-06-07T18:08:46.423Z,59.87
2023-06-07T18:11:12.907Z,60.42
2023-06-07T18:13:39.340Z,60.32
2023-06-07T18:16:05.933Z,61.66
2023-06-07T18:18:35.004Z,61.70
2023-06-07T18:21:01.530Z,61.76
2023-06-07T18:23:28.319Z,61.34
2023-06-07T18:25:54.916Z,62.48
2023-06-07T18:28:21.395Z,63.36
2023-06-07T18:30:48.060Z,61.85
2023-06-07T18:33:14.625Z,62.88
2023-06-07T18:35:41.401Z,63.08
2023-06-07T18:38:07.980Z,63.72
2023-06-07T18:40:34.397Z,63.53
2023-06-07T18:43:01.126Z,63.58
2023-06-07T18:45:27.724Z,63.04
2023-06-07T18:47:55.221Z,62.60
2023-06-07T18:50:21.815Z,62.21
2023-06-07T18:52:48.216Z,61.22
2023-06-07T18:55:15.069Z,60.44
2023-06-07T18:57:41.640Z,60.21
2023-06-07T19:00:08.197Z,59.93
2023-06-07T19:02:34.746Z,59.69
2023-06-07T19:05:01.445Z,61.26
2023-06-07T19:07:28.661Z,61.70
2023-06-07T19:09:55.085Z,61.65
2023-06-07T19:12:21.546Z,62.00
2023-06-07T19:14:48.123Z,61.91
2023-06-07T19:17:15.131Z,62.13
2023-06-07T19:19:41.612Z,62.33
2023-06-07T19:22:10.971Z,62.88
2023-06-07T19:24:43.657Z,63.31
2023-06-07T19:27:10.272Z,63.50
2023-06-07T19:29:41.630Z,63.92
2023-06-07T19:32:08.597Z,63.56
2023-06-07T19:34:36.172Z,64.12
2023-06-07T19:37:02.797Z,64.17
2023-06-07T19:39:29.664Z,63.03
2023-06-07T19:41:56.104Z,63.58
2023-06-07T19:44:22.520Z,63.31
2023-06-07T19:46:49.235Z,62.88
2023-06-07T19:49:15.757Z,63.33
2023-06-07T19:51:42.344Z,62.73
2023-06-07T19:54:08.783Z,61.26
2023-06-07T19:56:35.273Z,61.16
2023-06-07T19:59:02.155Z,61.72
2023-06-07T20:01:31.334Z,61.52
2023-06-07T20:03:57.898Z,61.55
2023-06-07T20:06:27.332Z,61.53
2023-06-07T20:08:53.817Z,61.07
2023-06-07T20:11:20.541Z,63.50
2023-06-07T20:13:46.923Z,64.13
2023-06-07T20:16:13.411Z,63.46
2023-06-07T20:18:40.030Z,63.26
2023-06-07T20:21:06.563Z,63.45
2023-06-07T20:23:33.179Z,63.12
2023-06-07T20:25:59.716Z,63.00
2023-06-07T20:28:26.196Z,62.96
2023-06-07T20:30:52.730Z,62.86
2023-06-07T20:33:19.202Z,62.42
2023-06-07T20:35:46.929Z,62.56
2023-06-07T20:38:13.930Z,61.58
2023-06-07T20:40:40.949Z,62.38
2023-06-07T20:43:07.739Z,62.40
2023-06-07T20:45:34.259Z,61.93
2023-06-07T20:48:01.804Z,62.59
2023-06-07T20:50:28.497Z,62.39
2023-06-07T20:52:55.018Z,62.06
2023-06-07T20:55:21.578Z,61.87
2023-06-07T20:57:48.710Z,62.11
2023-06-07T21:00:15.200Z,62.04
2023-06-07T21:02:41.828Z,62.77
2023-06-07T21:05:08.568Z,62.70
2023-06-07T21:07:35.957Z,62.62
2023-06-07T21:10:06.653Z,62.34
2023-06-07T21:12:34.076Z,62.80
2023-06-07T21:15:01.224Z,62.45
2023-06-07T21:17:29.248Z,62.78
2023-06-07T21:19:58.593Z,63.11
2023-06-07T21:22:28.408Z,63.20
2023-06-07T21:24:55.111Z,62.47
2023-06-07T21:27:21.546Z,62.91
2023-06-07T21:29:50.691Z,63.19
2023-06-07T21:32:17.553Z,62.62
2023-06-07T21:34:44.228Z,62.80
2023-06-07T21:37:11.450Z,62.36
2023-06-07T21:39:38.863Z,61.73
2023-06-07T21:42:05.781Z,62.23
2023-06-07T21:44:32.478Z,61.75
2023-06-07T21:46:59.672Z,61.53
2023-06-07T21:49:29.622Z,61.37
2023-06-07T21:51:58.464Z,60.49
2023-06-07T21:54:24.915Z,61.08
2023-06-07T21:56:51.292Z,60.99
2023-06-07T21:59:17.779Z,60.37
2023-06-07T22:01:44.605Z,59.66
2023-06-07T22:04:11.280Z,60.46
2023-06-07T22:06:38.074Z,60.50
2023-06-07T22:09:06.274Z,59.71
2023-06-07T22:11:33.766Z,59.86
2023-06-07T22:14:01.660Z,60.44
2023-06-07T22:16:31.928Z,60.00
2023-06-07T22:19:01.902Z,60.65
2023-06-07T22:21:31.306Z,60.58
2023-06-07T22:23:58.978Z,60.83
2023-06-07T22:26:30.582Z,60.73
2023-06-07T22:29:03.821Z,60.76
2023-06-07T22:31:33.010Z,61.14
2023-06-07T22:34:04.187Z,60.48
2023-06-07T22:36:39.020Z,60.89
2023-06-07T22:39:06.570Z,60.58
2023-06-07T22:41:33.010Z,60.74
2023-06-07T22:44:01.557Z,60.76
2023-06-07T22:46:28.181Z,61.55
2023-06-07T22:48:56.803Z,61.48
2023-06-07T22:51:23.230Z,61.08
2023-06-07T22:53:50.059Z,60.75
2023-06-07T22:56:16.598Z,60.84
2023-06-07T22:58:43.063Z,61.00
2023-06-07T23:01:09.782Z,60.62
2023-06-07T23:03:36.763Z,60.71
2023-06-07T23:06:03.234Z,61.33
2023-06-07T23:08:29.733Z,61.97
2023-06-07T23:10:56.340Z,62.85
2023-06-07T23:13:23.062Z,62.32
2023-06-07T23:15:49.447Z,62.37
2023-06-07T23:18:16.441Z,62.49
2023-06-07T23:20:42.924Z,62.24
2023-06-07T23:23:10.781Z,61.83
2023-06-07T23:25:37.458Z,61.50
2023-06-07T23:28:04.053Z,62.02
2023-06-07T23:30:31.086Z,61.91
2023-06-07T23:32:57.503Z,61.60
2023-06-07T23:35:23.955Z,61.69
2023-06-07T23:37:50.368Z,61.39
2023-06-07T23:40:16.991Z,61.97
2023-06-07T23:42:43.531Z,62.17
2023-06-07T23:45:09.947Z,62.31
2023-06-07T23:47:39.554Z,62.61
2023-06-07T23:50:09.396Z,61.97
2023-06-07T23:52:36.196Z,62.41
2023-06-07T23:55:02.663Z,62.08
2023-06-07T23:57:29.062Z,62.47
2023-06-07T23:59:56.323Z,61.79
